createdAt,value
2017-12-06T00:00:52.402Z,84.83
2017-12-06T00:03:19.996Z,85.09
2017-12-06T00:05:47.568Z,84.95
2017-12-06T00:08:15.161Z,84.68
2017-12-06T00:10:42.713Z,84.38
2017-12-06T00:13:16.119Z,84.29
2017-12-06T00:15:43.705Z,84.27
2017-12-06T00:18:11.332Z,83.46
2017-12-06T00:20:38.956Z,83.37
2017-12-06T00:23:06.599Z,83.50
2017-12-06T00:25:34.207Z,84.06
2017-12-06T00:28:01.818Z,83.17
2017-12-06T00:30:29.406Z,83.74
2017-12-06T00:32:56.972Z,83.60
2017-12-06T00:35:24.568Z,83.97
2017-12-06T00:37:52.180Z,84.02
2017-12-06T00:40:19.793Z,83.74
2017-12-06T00:42:51.792Z,83.97
2017-12-06T00:45:20.205Z,84.09
2017-12-06T00:47:54.540Z,84.08
2017-12-06T00:50:22.157Z,83.89
2017-12-06T00:52:50.568Z,84.08
2017-12-06T00:55:18.546Z,84.36
2017-12-06T00:57:46.173Z,84.56
2017-12-06T01:00:15.477Z,84.08
2017-12-06T01:02:43.044Z,84.50
2017-12-06T01:05:10.818Z,84.33
2017-12-06T01:07:38.401Z,84.80
2017-12-06T01:10:05.988Z,84.83
2017-12-06T01:12:43.443Z,84.82
2017-12-06T01:15:12.449Z,84.72
2017-12-06T01:17:40.080Z,84.70
2017-12-06T01:20:07.639Z,84.47
2017-12-06T01:22:35.221Z,85.11
2017-12-06T01:25:02.790Z,84.48
2017-12-06T01:27:30.360Z,84.79
2017-12-06T01:29:57.953Z,84.63
2017-12-06T01:32:25.585Z,84.66
2017-12-06T01:34:53.229Z,84.71
2017-12-06T01:37:20.864Z,84.68
2017-12-06T01:39:48.425Z,84.79
2017-12-06T01:42:15.996Z,84.97
2017-12-06T01:44:43.654Z,84.47
2017-12-06T01:47:11.343Z,85.01
2017-12-06T01:49:38.901Z,84.79
2017-12-06T01:52:06.502Z,84.26
2017-12-06T01:54:34.504Z,84.01
2017-12-06T01:57:02.611Z,83.58
2017-12-06T01:59:30.248Z,83.33
2017-12-06T02:01:57.835Z,83.43
2017-12-06T02:04:25.384Z,83.09
2017-12-06T02:06:52.971Z,83.24
2017-12-06T02:09:20.555Z,82.84
2017-12-06T02:11:48.112Z,83.12
2017-12-06T02:14:15.705Z,83.00
2017-12-06T02:16:43.315Z,83.04
2017-12-06T02:19:11.097Z,82.81
2017-12-06T02:21:38.688Z,83.29
2017-12-06T02:24:06.278Z,83.05
2017-12-06T02:26:33.856Z,83.04
2017-12-06T02:29:01.475Z,83.31
2017-12-06T02:31:29.093Z,83.13
2017-12-06T02:33:56.654Z,82.97
2017-12-06T02:36:24.277Z,83.32
2017-12-06T02:38:51.929Z,82.86
2017-12-06T02:41:31.288Z,82.85
2017-12-06T02:44:10.527Z,83.50
2017-12-06T02:46:38.095Z,83.37
2017-12-06T02:49:05.746Z,83.21
2017-12-06T02:51:33.595Z,83.31
2017-12-06T02:54:01.147Z,83.40
2017-12-06T02:56:28.712Z,83.57
2017-12-06T02:58:56.280Z,83.38
2017-12-06T03:01:23.847Z,83.22
2017-12-06T03:03:51.612Z,83.01
2017-12-06T03:06:19.158Z,83.12
2017-12-06T03:08:46.737Z,82.98
2017-12-06T03:11:14.350Z,83.24
2017-12-06T03:13:41.934Z,83.39
2017-12-06T03:16:09.503Z,83.50
2017-12-06T03:18:37.084Z,83.49
2017-12-06T03:21:04.660Z,83.61
2017-12-06T03:23:32.411Z,83.27
2017-12-06T03:25:59.967Z,83.41
2017-12-06T03:28:29.003Z,83.04
2017-12-06T03:30:56.923Z,82.28
2017-12-06T03:33:24.464Z,82.57
2017-12-06T03:35:52.044Z,82.14
2017-12-06T03:38:19.606Z,82.02
2017-12-06T03:40:47.154Z,82.25
2017-12-06T03:43:14.824Z,82.06
2017-12-06T03:45:42.418Z,81.86
2017-12-06T03:48:09.976Z,81.99
2017-12-06T03:50:37.561Z,80.63
2017-12-06T03:53:05.106Z,79.90
2017-12-06T03:55:32.661Z,80.45
2017-12-06T03:58:00.281Z,80.60
2017-12-06T04:00:28.224Z,81.21
2017-12-06T04:02:55.766Z,80.82
2017-12-06T04:05:23.397Z,81.15
2017-12-06T04:07:50.941Z,81.41
2017-12-06T04:10:18.524Z,81.45
2017-12-06T04:12:46.113Z,81.48
2017-12-06T04:15:13.683Z,81.58
2017-12-06T04:17:41.273Z,81.32
2017-12-06T04:20:08.856Z,81.37
2017-12-06T04:22:36.417Z,81.73
2017-12-06T04:25:03.976Z,81.72
2017-12-06T04:27:31.583Z,81.73
2017-12-06T04:29:59.157Z,81.52
2017-12-06T04:32:26.760Z,81.23
2017-12-06T04:34:54.312Z,81.55
2017-12-06T04:37:21.873Z,81.45
2017-12-06T04:39:49.423Z,81.71
2017-12-06T04:42:17.030Z,81.95
2017-12-06T04:44:44.608Z,82.45
2017-12-06T04:47:12.384Z,83.07
2017-12-06T04:49:39.977Z,83.22
2017-12-06T04:52:07.573Z,82.75
2017-12-06T04:54:35.136Z,82.11
2017-12-06T04:57:02.717Z,80.24
2017-12-06T04:59:30.540Z,80.34
2017-12-06T05:01:58.090Z,79.36
2017-12-06T05:04:25.745Z,80.48
2017-12-06T05:06:53.322Z,80.31
2017-12-06T05:09:20.886Z,80.38
2017-12-06T05:11:48.504Z,80.92
2017-12-06T05:14:16.091Z,81.17
2017-12-06T05:16:43.636Z,81.21
2017-12-06T05:19:11.317Z,80.60
2017-12-06T05:21:39.113Z,80.39
2017-12-06T05:24:06.716Z,80.54
2017-12-06T05:26:34.279Z,80.83
2017-12-06T05:29:01.882Z,80.64
2017-12-06T05:31:29.604Z,80.58
2017-12-06T05:33:57.213Z,80.74
2017-12-06T05:36:24.825Z,81.07
2017-12-06T05:38:52.428Z,81.38
2017-12-06T05:41:19.987Z,80.57
2017-12-06T05:43:47.552Z,80.48
2017-12-06T05:46:15.108Z,80.73
2017-12-06T05:48:42.697Z,80.71
2017-12-06T05:51:10.245Z,80.07
2017-12-06T05:53:37.889Z,80.26
2017-12-06T05:56:05.475Z,79.99
2017-12-06T05:58:33.087Z,79.14
2017-12-06T06:01:00.657Z,79.56
2017-12-06T06:03:28.282Z,79.20
2017-12-06T06:05:55.842Z,78.95
2017-12-06T06:08:23.382Z,78.81
2017-12-06T06:10:50.971Z,78.86
2017-12-06T06:13:18.544Z,79.71
2017-12-06T06:15:46.110Z,79.70
2017-12-06T06:18:13.717Z,79.84
2017-12-06T06:20:41.352Z,80.54
2017-12-06T06:23:09.103Z,80.73
2017-12-06T06:25:36.695Z,80.94
2017-12-06T06:28:04.298Z,81.26
2017-12-06T06:30:31.876Z,81.30
2017-12-06T06:32:59.429Z,81.04
2017-12-06T06:35:27.006Z,81.03
2017-12-06T06:37:54.556Z,80.98
2017-12-06T06:40:22.141Z,80.43
2017-12-06T06:42:49.709Z,80.07
2017-12-06T06:45:17.287Z,80.14
2017-12-06T06:47:44.847Z,80.46
2017-12-06T06:50:12.449Z,80.52
2017-12-06T06:52:40.059Z,80.33
2017-12-06T06:55:07.647Z,80.12
2017-12-06T06:57:35.229Z,80.62
2017-12-06T07:00:02.906Z,80.29
2017-12-06T07:02:32.116Z,79.62
2017-12-06T07:05:01.481Z,78.39
2017-12-06T07:07:29.068Z,78.81
2017-12-06T07:09:56.633Z,79.74
2017-12-06T07:12:24.212Z,79.74
2017-12-06T07:14:51.822Z,79.82
2017-12-06T07:17:19.505Z,79.70
2017-12-06T07:19:50.285Z,79.89
2017-12-06T07:22:17.881Z,78.71
2017-12-06T07:24:45.678Z,79.16
2017-12-06T07:27:13.293Z,78.73
2017-12-06T07:29:40.881Z,78.99
2017-12-06T07:32:08.464Z,79.23
2017-12-06T07:34:36.326Z,78.99
2017-12-06T07:37:05.567Z,79.32
2017-12-06T07:39:33.241Z,78.41
2017-12-06T07:42:01.387Z,78.96
2017-12-06T07:44:28.975Z,78.56
2017-12-06T07:46:56.793Z,77.76
2017-12-06T07:49:24.337Z,77.79
2017-12-06T07:51:51.899Z,77.95
2017-12-06T07:54:19.453Z,77.90
2017-12-06T07:56:46.996Z,78.27
2017-12-06T07:59:15.922Z,78.06
2017-12-06T08:01:43.496Z,78.26
2017-12-06T08:04:11.051Z,78.41
2017-12-06T08:06:38.636Z,79.31
2017-12-06T08:09:06.622Z,78.54
2017-12-06T08:11:34.163Z,78.70
2017-12-06T08:14:01.750Z,78.24
2017-12-06T08:16:29.540Z,78.04
2017-12-06T08:18:57.091Z,77.86
2017-12-06T08:21:24.686Z,78.33
2017-12-06T08:23:52.268Z,78.27
2017-12-06T08:26:19.841Z,77.92
2017-12-06T08:28:47.490Z,77.83
2017-12-06T08:31:15.042Z,77.50
2017-12-06T08:33:42.668Z,77.55
2017-12-06T08:36:10.210Z,78.22
2017-12-06T08:38:37.805Z,78.40
2017-12-06T08:41:05.970Z,78.38
2017-12-06T08:43:33.534Z,79.30
2017-12-06T08:46:01.099Z,77.87
2017-12-06T08:48:28.902Z,78.12
2017-12-06T08:50:56.506Z,77.79
2017-12-06T08:53:24.066Z,78.30
2017-12-06T08:55:51.633Z,78.47
2017-12-06T08:58:19.223Z,77.70
2017-12-06T09:00:46.778Z,77.70
2017-12-06T09:03:14.344Z,77.81
2017-12-06T09:05:41.909Z,77.78
2017-12-06T09:08:09.537Z,78.09
2017-12-06T09:10:37.127Z,77.74
2017-12-06T09:13:04.717Z,77.80
2017-12-06T09:15:32.247Z,77.57
2017-12-06T09:17:59.834Z,77.73
2017-12-06T09:20:27.454Z,77.96
2017-12-06T09:22:55.072Z,77.40
2017-12-06T09:25:22.682Z,77.09
2017-12-06T09:27:50.221Z,77.88
2017-12-06T09:30:17.811Z,77.42
2017-12-06T09:32:45.381Z,77.83
2017-12-06T09:35:13.120Z,77.44
2017-12-06T09:37:40.760Z,77.41
2017-12-06T09:40:08.310Z,77.46
2017-12-06T09:42:35.897Z,77.11
2017-12-06T09:45:03.880Z,77.50
2017-12-06T09:47:31.454Z,77.91
2017-12-06T09:49:58.995Z,77.24
2017-12-06T09:52:26.557Z,77.55
2017-12-06T09:54:54.097Z,77.23
2017-12-06T09:57:21.692Z,77.14
2017-12-06T09:59:49.231Z,77.91
2017-12-06T10:02:16.794Z,77.14
2017-12-06T10:04:44.368Z,76.91
2017-12-06T10:07:11.924Z,76.97
2017-12-06T10:09:39.505Z,77.25
2017-12-06T10:12:07.061Z,76.81
2017-12-06T10:14:34.611Z,76.79
2017-12-06T10:17:02.173Z,76.10
2017-12-06T10:19:29.746Z,76.17
2017-12-06T10:21:57.311Z,75.93
2017-12-06T10:24:25.122Z,76.35
2017-12-06T10:26:52.732Z,76.48
2017-12-06T10:29:20.318Z,77.09
2017-12-06T10:31:47.898Z,77.23
2017-12-06T10:34:15.447Z,76.64
2017-12-06T10:36:43.069Z,76.87
2017-12-06T10:39:10.797Z,76.97
2017-12-06T10:41:38.351Z,77.69
2017-12-06T10:44:05.917Z,76.22
2017-12-06T10:46:33.520Z,76.70
2017-12-06T10:49:01.062Z,77.65
2017-12-06T10:51:28.612Z,76.73
2017-12-06T10:53:56.222Z,76.52
2017-12-06T10:56:24.634Z,76.57
2017-12-06T10:58:52.190Z,76.72
2017-12-06T11:01:19.830Z,76.07
2017-12-06T11:03:47.417Z,75.77
2017-12-06T11:06:14.956Z,75.08
2017-12-06T11:08:42.575Z,75.72
2017-12-06T11:11:10.260Z,75.41
2017-12-06T11:13:37.876Z,75.80
2017-12-06T11:16:05.479Z,76.82
2017-12-06T11:18:33.053Z,75.66
2017-12-06T11:21:00.614Z,75.83
2017-12-06T11:23:28.176Z,75.31
2017-12-06T11:25:55.743Z,75.33
2017-12-06T11:28:23.291Z,76.06
2017-12-06T11:30:50.858Z,76.04
2017-12-06T11:33:18.464Z,76.33
2017-12-06T11:35:46.025Z,76.26
2017-12-06T11:38:13.567Z,76.23
2017-12-06T11:40:41.164Z,75.37
2017-12-06T11:43:08.908Z,77.03
2017-12-06T11:45:37.120Z,77.50
2017-12-06T11:48:04.706Z,76.51
2017-12-06T11:50:32.304Z,76.62
2017-12-06T11:53:00.079Z,76.79
2017-12-06T11:55:27.645Z,76.64
2017-12-06T11:57:56.001Z,76.56
2017-12-06T12:00:23.574Z,76.35
2017-12-06T12:02:51.153Z,77.07
2017-12-06T12:05:18.744Z,76.07
2017-12-06T12:07:46.290Z,76.17
2017-12-06T12:10:20.060Z,77.05
2017-12-06T12:12:48.240Z,76.28
2017-12-06T12:15:16.160Z,76.15
2017-12-06T12:17:44.109Z,75.87
2017-12-06T12:20:11.688Z,75.25
2017-12-06T12:22:39.237Z,76.62
2017-12-06T12:25:06.836Z,75.18
2017-12-06T12:27:34.825Z,75.20
2017-12-06T12:30:02.385Z,75.61
2017-12-06T12:32:29.951Z,75.65
2017-12-06T12:34:57.519Z,75.29
2017-12-06T12:37:25.073Z,74.88
2017-12-06T12:39:52.655Z,74.98
2017-12-06T12:42:20.249Z,75.05
2017-12-06T12:44:47.802Z,75.43
2017-12-06T12:47:15.359Z,75.81
2017-12-06T12:49:42.965Z,75.23
2017-12-06T12:52:10.558Z,76.22
2017-12-06T12:54:38.169Z,76.85
2017-12-06T12:57:05.741Z,77.14
2017-12-06T12:59:33.327Z,77.29
2017-12-06T13:02:00.910Z,77.20
2017-12-06T13:04:28.515Z,77.04
2017-12-06T13:06:56.079Z,76.61
2017-12-06T13:09:23.685Z,76.94
2017-12-06T13:11:51.240Z,76.96
2017-12-06T13:14:18.838Z,76.92
2017-12-06T13:16:46.429Z,77.85
2017-12-06T13:19:14.014Z,78.29
2017-12-06T13:21:41.576Z,76.75
2017-12-06T13:24:09.205Z,76.66
2017-12-06T13:26:36.772Z,76.39
2017-12-06T13:29:04.415Z,77.44
2017-12-06T13:31:32.265Z,76.92
2017-12-06T13:33:59.821Z,76.93
2017-12-06T13:36:27.382Z,77.32
2017-12-06T13:38:54.947Z,76.54
2017-12-06T13:41:22.565Z,76.54
2017-12-06T13:43:50.137Z,76.46
2017-12-06T13:46:17.725Z,76.46
2017-12-06T13:48:45.308Z,77.24
2017-12-06T13:51:12.869Z,76.28
2017-12-06T13:53:40.455Z,76.09
2017-12-06T13:56:08.003Z,74.97
2017-12-06T13:58:35.568Z,74.55
2017-12-06T14:01:03.178Z,76.80
2017-12-06T14:03:30.757Z,77.89
2017-12-06T14:05:58.364Z,78.05
2017-12-06T14:08:25.989Z,78.10
2017-12-06T14:10:53.537Z,78.39
2017-12-06T14:13:21.130Z,78.45
2017-12-06T14:15:48.704Z,78.52
2017-12-06T14:18:16.278Z,78.53
2017-12-06T14:20:43.882Z,78.72
2017-12-06T14:23:11.515Z,78.97
2017-12-06T14:25:39.070Z,79.14
2017-12-06T14:28:10.320Z,79.14
2017-12-06T14:30:39.399Z,79.03
2017-12-06T14:33:07.040Z,79.18
2017-12-06T14:35:35.552Z,79.58
2017-12-06T14:38:03.124Z,79.69
2017-12-06T14:40:31.070Z,79.77
2017-12-06T14:42:58.635Z,79.85
2017-12-06T14:45:26.120Z,79.76
2017-12-06T14:47:54.072Z,79.35
2017-12-06T14:50:22.100Z,79.63
2017-12-06T14:52:50.048Z,79.61
2017-12-06T14:55:18.087Z,79.72
2017-12-06T14:57:46.118Z,79.61
2017-12-06T15:00:13.786Z,79.41
2017-12-06T15:02:41.364Z,79.52
2017-12-06T15:05:08.950Z,79.63
2017-12-06T15:07:36.529Z,79.65
2017-12-06T15:10:04.156Z,80.02
2017-12-06T15:12:37.730Z,79.69
2017-12-06T15:14:59.926Z,79.84
2017-12-06T15:17:27.502Z,79.62
2017-12-06T15:19:55.158Z,79.35
2017-12-06T15:22:22.729Z,79.38
2017-12-06T15:24:50.306Z,79.91
2017-12-06T15:27:17.900Z,79.96
2017-12-06T15:29:45.455Z,79.47
2017-12-06T15:32:13.065Z,79.80
2017-12-06T15:34:40.673Z,79.89
2017-12-06T15:37:08.668Z,80.08
2017-12-06T15:39:36.296Z,79.97
2017-12-06T15:42:04.760Z,79.84
2017-12-06T15:44:32.315Z,79.70
2017-12-06T15:46:59.918Z,79.62
2017-12-06T15:49:27.486Z,79.89
2017-12-06T15:51:55.765Z,80.05
2017-12-06T15:54:23.375Z,80.24
2017-12-06T15:56:50.976Z,80.20
2017-12-06T15:59:18.576Z,80.08
2017-12-06T16:01:46.196Z,79.89
2017-12-06T16:04:14.065Z,79.75
2017-12-06T16:06:41.739Z,79.93
2017-12-06T16:09:09.394Z,80.04
2017-12-06T16:11:37.002Z,80.18
2017-12-06T16:14:04.584Z,80.01
2017-12-06T16:16:32.136Z,79.83
2017-12-06T16:18:59.730Z,80.04
2017-12-06T16:21:27.399Z,80.12
2017-12-06T16:23:55.298Z,80.05
2017-12-06T16:26:22.961Z,80.19
2017-12-06T16:28:50.559Z,80.24
2017-12-06T16:31:18.791Z,80.17
2017-12-06T16:33:46.449Z,80.30
2017-12-06T16:36:25.707Z,80.60
2017-12-06T16:38:53.796Z,80.67
2017-12-06T16:41:21.504Z,80.67
2017-12-06T16:43:49.131Z,80.47
2017-12-06T16:46:16.708Z,80.47
2017-12-06T16:48:44.291Z,80.67
2017-12-06T16:51:12.107Z,80.75
2017-12-06T16:53:39.690Z,80.35
2017-12-06T16:56:07.365Z,80.02
2017-12-06T16:58:35.035Z,80.39
2017-12-06T17:01:02.598Z,80.16
2017-12-06T17:03:30.274Z,80.62
2017-12-06T17:05:57.929Z,80.50
2017-12-06T17:08:25.525Z,80.79
2017-12-06T17:10:53.288Z,80.94
2017-12-06T17:13:20.945Z,80.47
2017-12-06T17:15:48.500Z,80.67
2017-12-06T17:18:16.927Z,80.60
2017-12-06T17:20:44.548Z,80.56
2017-12-06T17:23:13.254Z,80.62
2017-12-06T17:25:40.918Z,81.16
2017-12-06T17:28:08.586Z,80.69
2017-12-06T17:30:47.933Z,80.74
2017-12-06T17:33:15.693Z,81.01
2017-12-06T17:35:43.295Z,80.88
2017-12-06T17:38:10.925Z,80.47
2017-12-06T17:40:38.580Z,80.60
2017-12-06T17:43:06.244Z,80.64
2017-12-06T17:45:33.821Z,80.48
2017-12-06T17:48:01.419Z,80.30
2017-12-06T17:50:29.201Z,80.79
2017-12-06T17:52:56.765Z,80.62
2017-12-06T17:55:24.336Z,80.78
2017-12-06T17:57:51.917Z,81.01
2017-12-06T18:00:19.485Z,81.07
2017-12-06T18:02:47.696Z,81.17
2017-12-06T18:05:15.310Z,81.05
2017-12-06T18:07:42.900Z,80.77
2017-12-06T18:10:10.463Z,80.67
2017-12-06T18:12:38.036Z,80.48
2017-12-06T18:15:05.670Z,80.65
2017-12-06T18:17:33.236Z,80.54
2017-12-06T18:20:00.799Z,80.68
2017-12-06T18:22:28.408Z,80.98
2017-12-06T18:24:55.964Z,81.08
2017-12-06T18:27:23.535Z,81.24
2017-12-06T18:29:51.156Z,81.35
2017-12-06T18:32:18.827Z,81.55
2017-12-06T18:34:46.505Z,81.49
2017-12-06T18:37:14.324Z,81.24
2017-12-06T18:39:41.926Z,81.19
2017-12-06T18:42:09.521Z,81.01
2017-12-06T18:44:37.201Z,81.05
2017-12-06T18:47:04.797Z,81.04
2017-12-06T18:49:32.476Z,81.09
2017-12-06T18:52:00.278Z,81.23
2017-12-06T18:54:27.838Z,81.24
2017-12-06T18:56:55.638Z,81.18
2017-12-06T18:59:23.862Z,81.06
2017-12-06T19:01:51.602Z,81.27
2017-12-06T19:04:19.240Z,81.42
2017-12-06T19:06:46.811Z,81.48
2017-12-06T19:09:14.427Z,81.48
2017-12-06T19:11:41.987Z,81.47
2017-12-06T19:14:09.564Z,81.50
2017-12-06T19:16:37.218Z,81.44
2017-12-06T19:19:05.304Z,80.94
2017-12-06T19:21:32.860Z,80.99
2017-12-06T19:24:00.415Z,81.41
2017-12-06T19:26:27.971Z,81.42
2017-12-06T19:28:55.666Z,81.53
2017-12-06T19:31:23.256Z,81.23
2017-12-06T19:33:50.852Z,81.08
2017-12-06T19:36:18.390Z,80.91
2017-12-06T19:38:45.929Z,80.64
2017-12-06T19:41:13.613Z,80.54
2017-12-06T19:43:41.235Z,80.40
2017-12-06T19:46:08.817Z,80.56
2017-12-06T19:48:36.389Z,80.65
2017-12-06T19:51:03.990Z,80.69
2017-12-06T19:53:31.565Z,81.08
2017-12-06T19:56:03.750Z,80.95
2017-12-06T19:58:32.262Z,80.73
2017-12-06T20:01:00.134Z,80.68
2017-12-06T20:03:27.682Z,81.02
2017-12-06T20:05:55.268Z,80.76
2017-12-06T20:08:23.149Z,81.12
2017-12-06T20:10:50.736Z,80.85
2017-12-06T20:13:18.306Z,81.12
2017-12-06T20:15:45.856Z,80.90
2017-12-06T20:18:13.446Z,80.71
2017-12-06T20:20:41.034Z,80.69
2017-12-06T20:23:08.775Z,80.63
2017-12-06T20:25:36.573Z,80.59
2017-12-06T20:28:04.144Z,80.67
2017-12-06T20:30:31.746Z,80.61
2017-12-06T20:32:59.355Z,80.82
2017-12-06T20:35:26.957Z,80.92
2017-12-06T20:37:54.545Z,81.05
2017-12-06T20:40:22.381Z,80.85
2017-12-06T20:42:49.938Z,81.13
2017-12-06T20:45:17.508Z,81.16
2017-12-06T20:47:45.095Z,80.98
2017-12-06T20:50:12.723Z,81.07
2017-12-06T20:52:40.273Z,81.50
2017-12-06T20:55:07.889Z,81.67
2017-12-06T20:57:35.458Z,81.69
2017-12-06T21:00:03.164Z,81.52
2017-12-06T21:02:31.073Z,81.24
2017-12-06T21:04:58.722Z,81.17
2017-12-06T21:07:26.309Z,81.27
2017-12-06T21:09:53.905Z,81.44
2017-12-06T21:12:21.481Z,81.61
2017-12-06T21:14:49.109Z,81.57
2017-12-06T21:17:16.680Z,81.32
2017-12-06T21:19:44.309Z,81.17
2017-12-06T21:22:11.956Z,81.13
2017-12-06T21:24:39.589Z,81.46
2017-12-06T21:27:07.626Z,81.80
2017-12-06T21:29:35.240Z,81.87
2017-12-06T21:32:02.962Z,81.87
2017-12-06T21:34:30.626Z,81.78
2017-12-06T21:36:58.323Z,81.78
2017-12-06T21:39:26.016Z,81.91
2017-12-06T21:41:53.608Z,81.90
2017-12-06T21:44:21.585Z,81.85
2017-12-06T21:46:49.154Z,81.24
2017-12-06T21:49:16.716Z,81.20
2017-12-06T21:51:44.285Z,81.38
2017-12-06T21:54:11.852Z,81.45
2017-12-06T21:59:13.245Z,81.96
2017-12-06T22:01:40.747Z,82.06
2017-12-06T22:04:08.314Z,82.16
2017-12-06T22:06:35.941Z,82.35
2017-12-06T22:09:03.789Z,81.85
2017-12-06T22:11:31.359Z,81.64
2017-12-06T22:13:58.948Z,81.83
2017-12-06T22:16:26.495Z,82.19
2017-12-06T22:18:54.032Z,82.17
2017-12-06T22:21:21.627Z,81.96
2017-12-06T22:23:49.184Z,82.11
2017-12-06T22:26:16.737Z,82.43
2017-12-06T22:28:44.349Z,82.53
2017-12-06T22:31:11.894Z,82.57
2017-12-06T22:33:39.483Z,82.84
2017-12-06T22:36:07.216Z,82.72
2017-12-06T22:38:34.786Z,82.83
2017-12-06T22:41:02.363Z,82.85
2017-12-06T22:43:29.925Z,82.35
2017-12-06T22:45:57.480Z,82.67
2017-12-06T22:48:25.075Z,82.95
2017-12-06T22:50:52.688Z,83.08
2017-12-06T22:53:20.253Z,83.17
2017-12-06T22:55:47.824Z,83.33
2017-12-06T22:58:15.401Z,83.65
2017-12-06T23:00:42.954Z,84.19
2017-12-06T23:03:10.780Z,84.34
2017-12-06T23:05:38.353Z,84.18
2017-12-06T23:08:05.908Z,84.08
2017-12-06T23:10:33.530Z,83.94
2017-12-06T23:13:01.165Z,84.14
2017-12-06T23:15:28.777Z,84.32
2017-12-06T23:17:56.376Z,84.44
2017-12-06T23:20:23.948Z,84.24
2017-12-06T23:22:51.514Z,83.90
2017-12-06T23:25:19.205Z,83.96
2017-12-06T23:27:46.803Z,84.26
2017-12-06T23:30:14.392Z,84.52
2017-12-06T23:32:41.967Z,84.48
2017-12-06T23:35:09.649Z,84.42
2017-12-06T23:37:37.221Z,84.27
2017-12-06T23:40:05.325Z,84.23
2017-12-06T23:42:32.915Z,84.49
2017-12-06T23:45:00.449Z,84.95
2017-12-06T23:47:28.063Z,84.96
2017-12-06T23:49:55.637Z,84.72
2017-12-06T23:52:23.194Z,84.83
2017-12-06T23:54:50.746Z,84.81
2017-12-06T23:57:18.313Z,84.51
2017-12-06T23:59:45.885Z,84.85
